Fritz Reuter — A8JE9 — position and weather

sailwx.info

Track history (hours):
 
Tides and Currents Weather Stations Pressure Air Temp Water Temp Dewpoint Dewpoint Depression Visibility Wind Speed Wind Dir Waves Ship Positions

Fritz Reuter

Last reported at 2017-Nov-14 04:01 UTC. Time now 2017-Nov-22 09:17 UTC.
Position N 40°01' W 031°03'.
Warning: this ship's position is 8 days out of date.

Length 178 m; draft 10.3 m.

Type: Ship (hazmat cat A). MMSI: 636091081.

Date/timePositionNaut miles runAvg speedWind from/ knotsBaromVisibWave heightAir tempDewpointWater temp
2017-Nov-14 04:01N 40°01' W 031°03'7713.1
2017-Nov-13 22:07N 39°57' W 029°23'313.7
2017-Nov-13 21:54N 39°57' W 029°19'77716.5
2017-Nov-11 22:53N 38°39' W 012°39'6418.9
2017-Nov-11 19:30N 38°32' W 011°18'1018.6
2017-Nov-11 18:57N 38°31' W 011°05'4318.5
2017-Nov-11 16:36N 38°28' W 010°10'218.5
2017-Nov-11 16:29N 38°28' W 010°07'918.5
2017-Nov-11 16:00N 38°30' W 009°56'918.8
2017-Nov-11 15:30N 38°33' W 009°44'918.9
2017-Nov-11 15:00N 38°35' W 009°33'917.6
2017-Nov-11 14:30N 38°38' W 009°22'713.3
2017-Nov-11 13:59N 38°41' W 009°15'612.4
2017-Nov-11 13:30N 38°42' W 009°07'1 2.1
2017-Nov-11 13:00N 38°43' W 009°07'0 0.0
2017-Nov-11 12:27N 38°43' W 009°07'0 0.0
2017-Nov-11 12:00N 38°43' W 009°07'0 0.0
2017-Nov-11 11:18N 38°43' W 009°07'0 0.0
2017-Nov-11 09:57N 38°43' W 009°07'0 0.0
2017-Nov-11 09:30N 38°43' W 009°07'0 0.0
2017-Nov-11 09:00N 38°43' W 009°07'0 0.0
2017-Nov-11 08:30N 38°43' W 009°06'0 0.0
2017-Nov-11 07:57N 38°43' W 009°07'0 0.0
2017-Nov-11 07:09N 38°43' W 009°07'0 0.0
2017-Nov-11 07:00N 38°43' W 009°07'0 0.0
2017-Nov-11 06:30N 38°43' W 009°07'0 0.0
2017-Nov-11 06:00N 38°43' W 009°07'0 0.0
2017-Nov-11 04:45N 38°43' W 009°06'0 0.0
2017-Nov-11 03:39N 38°43' W 009°07'0 0.0
2017-Nov-11 03:30N 38°43' W 009°07'0 0.0
2017-Nov-11 02:54N 38°43' W 009°07'0 0.0
2017-Nov-11 02:12N 38°43' W 009°06'0 0.0
2017-Nov-11 02:00N 38°43' W 009°07'0 0.0
2017-Nov-11 01:27N 38°43' W 009°07'0 0.0
2017-Nov-11 01:00N 38°43' W 009°07'0 0.0
2017-Nov-11 00:27N 38°43' W 009°07'0 0.0
2017-Nov-10 23:42N 38°43' W 009°07'0 0.0
2017-Nov-10 23:19N 38°43' W 009°07'0 0.0
2017-Nov-10 23:01N 38°43' W 009°07'0 0.0
2017-Nov-10 22:30N 38°43' W 009°07'0 0.0
2017-Nov-10 21:19N 38°43' W 009°06'1 4.1
2017-Nov-10 21:00N 38°42' W 009°07'5 9.9
2017-Nov-10 20:30N 38°41' W 009°14'4 7.6
2017-Nov-10 20:00N 38°40' W 009°18'612.0
2017-Nov-10 19:30N 38°35' W 009°23'4 7.8
2017-Nov-10 19:00N 38°32' W 009°23'0 0.8
2017-Nov-10 18:30N 38°32' W 009°24'0 0.5
2017-Nov-10 18:00N 38°31' W 009°24'3 6.0
2017-Nov-10 17:30N 38°28' W 009°23'4 8.1
2017-Nov-10 17:00N 38°24' W 009°24'4 7.7
2017-Nov-10 16:30N 38°20' W 009°23'4 7.6
2017-Nov-10 16:00N 38°17' W 009°22'4 7.8
2017-Nov-10 15:30N 38°13' W 009°22'3 6.6
2017-Nov-10 15:00N 38°10' W 009°22'0 0.6
2017-Nov-10 14:30N 38°10' W 009°22'0 0.7
2017-Nov-10 13:59N 38°10' W 009°22'0 0.7
2017-Nov-10 13:30N 38°10' W 009°23'0 0.7
2017-Nov-10 13:00N 38°11' W 009°23'0 0.8
2017-Nov-10 12:30N 38°11' W 009°23'0 0.8
2017-Nov-10 12:00N 38°11' W 009°23'0 1.0
2017-Nov-10 11:30N 38°12' W 009°23'0 0.9
2017-Nov-10 11:00N 38°12' W 009°24'0 0.7
2017-Nov-10 10:30N 38°13' W 009°23'3 5.8
2017-Nov-10 10:00N 38°10' W 009°23'4 8.3
2017-Nov-10 09:30N 38°06' W 009°23'4 8.2
2017-Nov-10 09:00N 38°01' W 009°23'4 8.2
2017-Nov-10 08:30N 37°57' W 009°23'612.7
2017-Nov-10 08:00N 37°51' W 009°23'398 8.8
2017-Nov-08 10:58N 37°13' W 001°03'817.5
2017-Nov-08 10:29N 37°19' W 000°55'817.5
2017-Nov-08 10:00N 37°24' W 000°47'917.2
2017-Nov-08 09:30N 37°30' W 000°39'816.9
2017-Nov-08 09:00N 37°36' W 000°32'816.7
2017-Nov-08 08:30N 37°43' W 000°26'  
2017-Nov-04 04:44N 43°53' E 008°28'312.9
2017-Nov-04 04:30N 43°56' E 008°30'  
Track history (hours):
 
Tides and Currents Weather Stations Pressure Air Temp Water Temp Dewpoint Dewpoint Depression Visibility Wind Speed Wind Dir Waves Ship Positions

Fritz Reuter

Last reported at 2017-Nov-14 04:01 UTC. Time now 2017-Nov-22 09:17 UTC.
Position N 40°01' W 031°03'.
Warning: this ship's position is 8 days out of date.

Length 178 m; draft 10.3 m.

Type: Ship (hazmat cat A). MMSI: 636091081.

Date/timePositionNaut miles runAvg speedWind from/ knotsBaromVisibWave heightAir tempDewpointWater temp
2017-Nov-14 04:01N 40°01' W 031°03'7713.1
2017-Nov-13 22:07N 39°57' W 029°23'313.7
2017-Nov-13 21:54N 39°57' W 029°19'77716.5
2017-Nov-11 22:53N 38°39' W 012°39'6418.9
2017-Nov-11 19:30N 38°32' W 011°18'1018.6
2017-Nov-11 18:57N 38°31' W 011°05'4318.5
2017-Nov-11 16:36N 38°28' W 010°10'218.5
2017-Nov-11 16:29N 38°28' W 010°07'918.5
2017-Nov-11 16:00N 38°30' W 009°56'918.8
2017-Nov-11 15:30N 38°33' W 009°44'918.9
2017-Nov-11 15:00N 38°35' W 009°33'917.6
2017-Nov-11 14:30N 38°38' W 009°22'713.3
2017-Nov-11 13:59N 38°41' W 009°15'612.4
2017-Nov-11 13:30N 38°42' W 009°07'1 2.1
2017-Nov-11 13:00N 38°43' W 009°07'0 0.0
2017-Nov-11 12:27N 38°43' W 009°07'0 0.0
2017-Nov-11 12:00N 38°43' W 009°07'0 0.0
2017-Nov-11 11:18N 38°43' W 009°07'0 0.0
2017-Nov-11 09:57N 38°43' W 009°07'0 0.0
2017-Nov-11 09:30N 38°43' W 009°07'0 0.0
2017-Nov-11 09:00N 38°43' W 009°07'0 0.0
2017-Nov-11 08:30N 38°43' W 009°06'0 0.0
2017-Nov-11 07:57N 38°43' W 009°07'0 0.0
2017-Nov-11 07:09N 38°43' W 009°07'0 0.0
2017-Nov-11 07:00N 38°43' W 009°07'0 0.0
2017-Nov-11 06:30N 38°43' W 009°07'0 0.0
2017-Nov-11 06:00N 38°43' W 009°07'0 0.0
2017-Nov-11 04:45N 38°43' W 009°06'0 0.0
2017-Nov-11 03:39N 38°43' W 009°07'0 0.0
2017-Nov-11 03:30N 38°43' W 009°07'0 0.0
2017-Nov-11 02:54N 38°43' W 009°07'0 0.0
2017-Nov-11 02:12N 38°43' W 009°06'0 0.0
2017-Nov-11 02:00N 38°43' W 009°07'0 0.0
2017-Nov-11 01:27N 38°43' W 009°07'0 0.0
2017-Nov-11 01:00N 38°43' W 009°07'0 0.0
2017-Nov-11 00:27N 38°43' W 009°07'0 0.0
2017-Nov-10 23:42N 38°43' W 009°07'0 0.0
2017-Nov-10 23:19N 38°43' W 009°07'0 0.0
2017-Nov-10 23:01N 38°43' W 009°07'0 0.0
2017-Nov-10 22:30N 38°43' W 009°07'0 0.0
2017-Nov-10 21:19N 38°43' W 009°06'1 4.1
2017-Nov-10 21:00N 38°42' W 009°07'5 9.9
2017-Nov-10 20:30N 38°41' W 009°14'4 7.6
2017-Nov-10 20:00N 38°40' W 009°18'612.0
2017-Nov-10 19:30N 38°35' W 009°23'4 7.8
2017-Nov-10 19:00N 38°32' W 009°23'0 0.8
2017-Nov-10 18:30N 38°32' W 009°24'0 0.5
2017-Nov-10 18:00N 38°31' W 009°24'3 6.0
2017-Nov-10 17:30N 38°28' W 009°23'4 8.1
2017-Nov-10 17:00N 38°24' W 009°24'4 7.7
2017-Nov-10 16:30N 38°20' W 009°23'4 7.6
2017-Nov-10 16:00N 38°17' W 009°22'4 7.8
2017-Nov-10 15:30N 38°13' W 009°22'3 6.6
2017-Nov-10 15:00N 38°10' W 009°22'0 0.6
2017-Nov-10 14:30N 38°10' W 009°22'0 0.7
2017-Nov-10 13:59N 38°10' W 009°22'0 0.7
2017-Nov-10 13:30N 38°10' W 009°23'0 0.7
2017-Nov-10 13:00N 38°11' W 009°23'0 0.8
2017-Nov-10 12:30N 38°11' W 009°23'0 0.8
2017-Nov-10 12:00N 38°11' W 009°23'0 1.0
2017-Nov-10 11:30N 38°12' W 009°23'0 0.9
2017-Nov-10 11:00N 38°12' W 009°24'0 0.7
2017-Nov-10 10:30N 38°13' W 009°23'3 5.8
2017-Nov-10 10:00N 38°10' W 009°23'4 8.3
2017-Nov-10 09:30N 38°06' W 009°23'4 8.2
2017-Nov-10 09:00N 38°01' W 009°23'4 8.2
2017-Nov-10 08:30N 37°57' W 009°23'612.7
2017-Nov-10 08:00N 37°51' W 009°23'398 8.8
2017-Nov-08 10:58N 37°13' W 001°03'817.5
2017-Nov-08 10:29N 37°19' W 000°55'817.5
2017-Nov-08 10:00N 37°24' W 000°47'917.2
2017-Nov-08 09:30N 37°30' W 000°39'816.9
2017-Nov-08 09:00N 37°36' W 000°32'816.7
2017-Nov-08 08:30N 37°43' W 000°26'  
2017-Nov-04 04:44N 43°53' E 008°28'312.9
2017-Nov-04 04:30N 43°56' E 008°30'  

Dump ship's entire track history